Sakaide Maru — 3EYR6 — position and weather

sailwx.info

Track history (hours):
 
Tides and Currents Weather Stations Pressure Air Temp Water Temp Dewpoint Dewpoint Depression Visibility Wind Speed Wind Dir Waves Ship Positions

Sakaide Maru

Last reported at 2017-Jul-18 13:55 UTC. Time now 2017-Jul-24 14:35 UTC.
Position N 33°58' E 134°58'.

Length 255 m; draft 7.9 m.

Type: Ship. MMSI: 354898000.

Date/timePositionNaut miles runAvg speedWind from/ knotsBaromVisibWave heightAir tempDewpointWater temp
2017-Jul-18 13:55N 33°58' E 134°58'512.3
2017-Jul-18 13:30N 34°03' E 134°58'612.1
2017-Jul-18 13:00N 34°09' E 134°58'510.7
2017-Jul-18 12:30N 34°14' E 134°58'611.9
2017-Jul-18 11:58N 34°20' E 134°60'714.1
2017-Jul-18 11:27N 34°27' E 135°02'612.8
2017-Jul-18 11:00N 34°33' E 135°05'3 5.4
2017-Jul-18 10:30N 34°35' E 135°04'611.2
2017-Jul-18 10:00N 34°36' E 134°58'612.4
2017-Jul-18 09:30N 34°34' E 134°51'612.3
2017-Jul-18 09:00N 34°31' E 134°44'813.4
2017-Jul-18 08:26N 34°28' E 134°35'  
2017-Jul-13 19:58N 34°33' E 134°46'510.6
2017-Jul-13 19:28N 34°35' E 134°52'510.0
2017-Jul-13 19:00N 34°37' E 134°57'4 8.1
2017-Jul-13 18:26N 34°37' E 135°02'4 8.3
2017-Jul-13 18:00N 34°35' E 135°06'2 4.9
2017-Jul-13 17:30N 34°33' E 135°08'3 7.0
2017-Jul-13 17:00N 34°29' E 135°07'510.9
2017-Jul-13 16:30N 34°25' E 135°04'612.4
2017-Jul-13 15:59N 34°19' E 135°00'612.3
2017-Jul-13 15:30N 34°13' E 134°59'5 9.2
2017-Jul-13 15:00N 34°09' E 134°60'4 7.9
2017-Jul-13 14:30N 34°05' E 135°00'3 6.2
2017-Jul-13 14:00N 34°02' E 134°60'5 8.9
2017-Jul-13 13:29N 33°57' E 134°59'4 8.5
2017-Jul-13 13:00N 33°53' E 134°58'277 7.9
2017-Jul-12 01:50N 35°04' E 140°23'  
Track history (hours):
 
Tides and Currents Weather Stations Pressure Air Temp Water Temp Dewpoint Dewpoint Depression Visibility Wind Speed Wind Dir Waves Ship Positions

Sakaide Maru

Last reported at 2017-Jul-18 13:55 UTC. Time now 2017-Jul-24 14:35 UTC.
Position N 33°58' E 134°58'.

Length 255 m; draft 7.9 m.

Type: Ship. MMSI: 354898000.

Date/timePositionNaut miles runAvg speedWind from/ knotsBaromVisibWave heightAir tempDewpointWater temp
2017-Jul-18 13:55N 33°58' E 134°58'512.3
2017-Jul-18 13:30N 34°03' E 134°58'612.1
2017-Jul-18 13:00N 34°09' E 134°58'510.7
2017-Jul-18 12:30N 34°14' E 134°58'611.9
2017-Jul-18 11:58N 34°20' E 134°60'714.1
2017-Jul-18 11:27N 34°27' E 135°02'612.8
2017-Jul-18 11:00N 34°33' E 135°05'3 5.4
2017-Jul-18 10:30N 34°35' E 135°04'611.2
2017-Jul-18 10:00N 34°36' E 134°58'612.4
2017-Jul-18 09:30N 34°34' E 134°51'612.3
2017-Jul-18 09:00N 34°31' E 134°44'813.4
2017-Jul-18 08:26N 34°28' E 134°35'  
2017-Jul-13 19:58N 34°33' E 134°46'510.6
2017-Jul-13 19:28N 34°35' E 134°52'510.0
2017-Jul-13 19:00N 34°37' E 134°57'4 8.1
2017-Jul-13 18:26N 34°37' E 135°02'4 8.3
2017-Jul-13 18:00N 34°35' E 135°06'2 4.9
2017-Jul-13 17:30N 34°33' E 135°08'3 7.0
2017-Jul-13 17:00N 34°29' E 135°07'510.9
2017-Jul-13 16:30N 34°25' E 135°04'612.4
2017-Jul-13 15:59N 34°19' E 135°00'612.3
2017-Jul-13 15:30N 34°13' E 134°59'5 9.2
2017-Jul-13 15:00N 34°09' E 134°60'4 7.9
2017-Jul-13 14:30N 34°05' E 135°00'3 6.2
2017-Jul-13 14:00N 34°02' E 134°60'5 8.9
2017-Jul-13 13:29N 33°57' E 134°59'4 8.5
2017-Jul-13 13:00N 33°53' E 134°58'277 7.9
2017-Jul-12 01:50N 35°04' E 140°23'  

Dump ship's entire track history